createdAt,value
2023-04-10T03:45:28.870Z,7.30
2023-04-10T03:47:56.026Z,7.40
2023-04-10T03:50:22.968Z,7.30
2023-04-10T03:52:49.885Z,7.30
2023-04-10T03:55:19.624Z,7.30
2023-04-10T03:57:47.150Z,7.30
2023-04-10T04:00:14.406Z,7.40
2023-04-10T04:02:41.590Z,7.40
2023-04-10T04:05:08.970Z,7.50
2023-04-10T04:07:35.891Z,7.40
2023-04-10T04:10:02.887Z,7.40
2023-04-10T04:12:29.820Z,7.40
2023-04-10T04:14:56.803Z,7.30
2023-04-10T04:17:23.814Z,7.40
2023-04-10T04:19:50.756Z,7.40
2023-04-10T04:22:17.931Z,7.30
2023-04-10T04:24:44.807Z,7.40
2023-04-10T04:27:11.735Z,7.40
2023-04-10T04:29:38.664Z,7.30
2023-04-10T04:32:05.850Z,7.30
2023-04-10T04:34:32.776Z,7.30
2023-04-10T04:37:02.080Z,7.20
2023-04-10T04:39:29.028Z,7.30
2023-04-10T04:41:56.701Z,7.20
2023-04-10T04:44:23.594Z,7.20
2023-04-10T04:46:50.605Z,7.20
2023-04-10T04:49:17.559Z,7.20
2023-04-10T04:51:44.499Z,7.30
2023-04-10T04:54:11.429Z,7.30
2023-04-10T04:56:38.331Z,7.20
2023-04-10T04:59:05.322Z,7.20
2023-04-10T05:01:32.302Z,7.20
2023-04-10T05:03:59.326Z,7.10
2023-04-10T05:06:26.483Z,7.10
2023-04-10T05:08:53.722Z,7.10
2023-04-10T05:11:20.841Z,7.00
2023-04-10T05:13:47.747Z,7.10
2023-04-10T05:16:14.763Z,7.00
2023-04-10T05:18:41.863Z,7.10
2023-04-10T05:21:08.842Z,7.10
2023-04-10T05:23:35.957Z,7.00
2023-04-10T05:26:02.946Z,7.00
2023-04-10T05:28:29.855Z,6.90
2023-04-10T05:30:56.879Z,6.90
2023-04-10T05:33:23.798Z,7.00
2023-04-10T05:35:50.777Z,7.00
2023-04-10T05:38:17.725Z,7.00
2023-04-10T05:40:45.022Z,7.00
2023-04-10T05:43:11.952Z,7.00
2023-04-10T05:45:38.995Z,7.10
2023-04-10T05:48:06.112Z,7.10
2023-04-10T05:50:34.781Z,7.20
2023-04-10T05:53:01.685Z,7.20
2023-04-10T05:55:30.830Z,7.20
2023-04-10T05:57:57.795Z,7.20
2023-04-10T06:00:25.328Z,7.30
2023-04-10T06:02:52.284Z,7.30
2023-04-10T06:05:19.331Z,7.40
2023-04-10T06:07:46.413Z,7.40
2023-04-10T06:10:13.677Z,7.40
2023-04-10T06:12:40.599Z,7.40
2023-04-10T06:15:07.902Z,7.40
2023-04-10T06:17:34.809Z,7.40
2023-04-10T06:20:04.603Z,7.50
2023-04-10T06:22:32.555Z,7.60
2023-04-10T06:24:59.572Z,7.60
2023-04-10T06:27:27.163Z,7.60
2023-04-10T06:29:54.176Z,7.70
2023-04-10T06:34:48.352Z,7.80
2023-04-10T06:37:15.606Z,7.90
2023-04-10T06:39:42.852Z,8.00
2023-04-10T06:42:10.142Z,8.10
2023-04-10T06:44:37.051Z,8.10
2023-04-10T06:47:06.802Z,8.00
2023-04-10T06:49:33.831Z,8.10
2023-04-10T06:52:00.727Z,8.00
2023-04-10T06:54:27.610Z,8.10
2023-04-10T06:56:58.755Z,8.10
2023-04-10T06:59:25.945Z,8.20
2023-04-10T07:01:52.874Z,8.20
2023-04-10T07:04:19.872Z,8.30
2023-04-10T07:06:46.991Z,8.30
2023-04-10T07:09:14.019Z,8.40
2023-04-10T07:11:41.032Z,8.50
2023-04-10T07:14:08.046Z,8.50
2023-04-10T07:16:35.019Z,8.60
2023-04-10T07:19:02.009Z,8.60
2023-04-10T07:21:28.930Z,8.70
2023-04-10T07:23:56.017Z,8.90
2023-04-10T07:26:22.992Z,8.90
2023-04-10T07:28:49.961Z,9.00
2023-04-10T07:31:18.118Z,9.10
2023-04-10T07:33:45.545Z,9.10
2023-04-10T07:36:12.752Z,9.20
2023-04-10T07:38:39.774Z,9.30
2023-04-10T07:41:06.854Z,9.30
2023-04-10T07:43:33.759Z,9.40
2023-04-10T07:46:00.943Z,9.40
2023-04-10T07:48:27.884Z,9.70
2023-04-10T07:50:54.859Z,9.60
2023-04-10T07:53:21.823Z,9.60
2023-04-10T07:55:49.296Z,9.70
2023-04-10T07:58:16.365Z,9.80
2023-04-10T08:00:43.398Z,9.80
2023-04-10T08:03:11.482Z,9.80
2023-04-10T08:05:38.688Z,9.90
2023-04-10T08:08:05.772Z,9.90
2023-04-10T08:10:32.741Z,10.00
2023-04-10T08:12:59.737Z,10.10
2023-04-10T08:15:26.736Z,10.10
2023-04-10T08:17:53.901Z,10.20
2023-04-10T08:20:21.023Z,10.20
2023-04-10T08:22:47.939Z,10.40
2023-04-10T08:25:15.348Z,10.30
2023-04-10T08:27:42.397Z,10.30
2023-04-10T08:30:09.549Z,10.30
2023-04-10T08:32:36.512Z,10.40
2023-04-10T08:35:03.639Z,10.50
2023-04-10T08:37:30.544Z,10.50
2023-04-10T08:39:58.655Z,10.60
2023-04-10T08:42:26.278Z,10.70
2023-04-10T08:44:53.203Z,10.80
2023-04-10T08:47:21.097Z,10.80
2023-04-10T08:49:54.093Z,10.90
2023-04-10T08:52:21.640Z,11.00
2023-04-10T08:54:50.778Z,11.00
2023-04-10T08:57:19.601Z,11.10
2023-04-10T08:59:46.997Z,11.20
2023-04-10T09:02:14.042Z,11.20
2023-04-10T09:04:44.282Z,11.30
2023-04-10T09:07:11.301Z,11.40
2023-04-10T09:09:38.277Z,11.30
2023-04-10T09:12:07.024Z,11.40
2023-04-10T09:14:35.139Z,11.40
2023-04-10T09:17:11.422Z,11.40
2023-04-10T09:19:38.474Z,11.50
2023-04-10T09:22:05.494Z,11.60
2023-04-10T09:24:36.243Z,11.60
2023-04-10T09:27:03.287Z,11.70
2023-04-10T09:29:49.466Z,11.70
2023-04-10T09:32:35.019Z,11.70
2023-04-10T09:35:02.015Z,11.80
2023-04-10T09:37:32.474Z,11.90
2023-04-10T09:39:59.467Z,12.00
2023-04-10T09:42:33.286Z,12.00
2023-04-10T09:45:01.598Z,12.10
2023-04-10T09:47:29.004Z,12.10
2023-04-10T09:49:57.075Z,12.20
2023-04-10T09:52:25.549Z,12.20
2023-04-10T09:54:57.377Z,12.20
2023-04-10T09:57:25.346Z,12.30
2023-04-10T09:59:53.619Z,12.40
2023-04-10T10:02:21.940Z,12.40
2023-04-10T10:04:49.810Z,12.50
2023-04-10T10:07:17.352Z,12.70
2023-04-10T10:09:44.955Z,12.60
2023-04-10T10:12:12.760Z,12.70
2023-04-10T10:14:44.483Z,12.80
2023-04-10T10:17:12.497Z,12.80
2023-04-10T10:19:42.645Z,12.90
2023-04-10T10:22:10.134Z,12.90
2023-04-10T10:24:38.285Z,12.90
2023-04-10T10:27:09.177Z,13.00
2023-04-10T10:29:36.805Z,13.10
2023-04-10T10:32:04.401Z,13.10
2023-04-10T10:34:31.951Z,13.20
2023-04-10T10:36:59.071Z,13.30
2023-04-10T10:39:41.152Z,13.50
2023-04-10T10:42:10.813Z,13.40
2023-04-10T10:44:49.693Z,13.50
2023-04-10T10:47:20.603Z,13.60
2023-04-10T10:49:57.114Z,13.70
2023-04-10T10:52:40.397Z,13.80
2023-04-10T10:55:22.556Z,13.90
2023-04-10T10:57:52.873Z,13.90
2023-04-10T11:00:20.657Z,14.00
2023-04-10T11:03:26.224Z,14.10
2023-04-10T11:05:58.402Z,14.20
2023-04-10T11:08:35.282Z,14.20
2023-04-10T11:11:03.847Z,14.30
2023-04-10T11:13:31.346Z,14.30
2023-04-10T11:15:59.094Z,14.40
2023-04-10T11:18:44.809Z,14.40
2023-04-10T11:21:19.585Z,14.50
2023-04-10T11:24:01.391Z,14.60
2023-04-10T11:26:43.259Z,14.60
2023-04-10T11:29:14.201Z,14.70
2023-04-10T11:31:41.229Z,14.70
2023-04-10T11:34:08.914Z,14.80
2023-04-10T11:36:38.483Z,14.80
2023-04-10T11:39:08.695Z,14.80
2023-04-10T11:41:44.479Z,14.80
2023-04-10T11:44:13.669Z,14.80
2023-04-10T11:46:41.595Z,14.80
2023-04-10T11:49:12.202Z,14.80
2023-04-10T11:51:39.727Z,15.00
2023-04-10T11:54:07.876Z,14.90
2023-04-10T11:56:35.342Z,15.00
2023-04-10T11:59:09.622Z,15.10
2023-04-10T12:01:37.065Z,15.10
2023-04-10T12:04:04.250Z,15.10
2023-04-10T12:06:31.734Z,15.20
2023-04-10T12:08:58.737Z,15.40
2023-04-10T12:11:26.015Z,15.40
2023-04-10T12:13:54.384Z,15.50
2023-04-10T12:16:21.682Z,15.60
2023-04-10T12:18:49.666Z,15.70
2023-04-10T12:21:16.819Z,15.80
2023-04-10T12:23:43.748Z,15.70
2023-04-10T12:26:13.550Z,15.70
2023-04-10T12:28:41.502Z,15.80
2023-04-10T12:31:09.297Z,15.80
2023-04-10T12:33:36.344Z,15.90
2023-04-10T12:36:03.433Z,15.90
2023-04-10T12:38:36.861Z,15.90
2023-04-10T12:43:39.083Z,16.10
2023-04-10T12:46:06.508Z,16.10
2023-04-10T12:48:33.608Z,16.20
2023-04-10T12:51:01.137Z,16.30
2023-04-10T12:53:28.127Z,16.50
2023-04-10T12:55:59.423Z,16.40
2023-04-10T12:58:30.983Z,16.40
2023-04-10T13:00:58.993Z,16.50
2023-04-10T13:03:26.216Z,16.50
2023-04-10T13:05:53.570Z,16.60
2023-04-10T13:08:21.210Z,16.60
2023-04-10T13:10:49.276Z,16.60
2023-04-10T13:13:16.573Z,16.60
2023-04-10T13:15:43.817Z,16.60
2023-04-10T13:18:10.968Z,16.60
2023-04-10T13:20:41.369Z,16.60
2023-04-10T13:23:08.594Z,16.70
2023-04-10T13:25:42.818Z,16.80
2023-04-10T13:28:11.146Z,16.80
2023-04-10T13:30:39.340Z,16.90
2023-04-10T13:33:06.456Z,17.00
2023-04-10T13:35:33.632Z,17.10
2023-04-10T13:38:00.727Z,17.20
2023-04-10T13:40:27.678Z,17.30
2023-04-10T13:42:54.594Z,17.30
2023-04-10T13:45:21.678Z,17.40
2023-04-10T13:47:48.756Z,17.40
2023-04-10T13:50:15.791Z,17.50
2023-04-10T13:52:42.741Z,17.50
2023-04-10T13:55:09.911Z,17.50
2023-04-10T13:57:37.051Z,17.60
2023-04-10T14:00:04.705Z,17.60
2023-04-10T14:02:31.780Z,17.70
2023-04-10T14:04:58.836Z,17.70
2023-04-10T14:07:25.802Z,17.80
2023-04-10T14:09:52.778Z,17.80
2023-04-10T14:12:19.822Z,17.80
2023-04-10T14:14:46.777Z,17.90
2023-04-10T14:17:13.742Z,17.90
2023-04-10T14:19:41.736Z,18.00
2023-04-10T14:22:08.701Z,18.00
2023-04-10T14:24:35.603Z,18.10
2023-04-10T14:27:02.610Z,18.10
2023-04-10T14:31:59.478Z,18.10
2023-04-10T14:34:26.489Z,18.10
2023-04-10T14:36:56.207Z,18.20
2023-04-10T14:39:24.116Z,18.30
2023-04-10T14:41:51.497Z,18.30
2023-04-10T14:44:18.531Z,18.30
2023-04-10T14:46:45.861Z,18.40
2023-04-10T14:49:13.323Z,18.40
2023-04-10T14:51:42.608Z,18.40
2023-04-10T14:54:09.732Z,18.40
2023-04-10T14:56:36.747Z,18.40
2023-04-10T14:59:03.627Z,18.50
2023-04-10T15:01:30.545Z,18.50
2023-04-10T15:03:57.789Z,18.50
2023-04-10T15:06:27.336Z,18.50
2023-04-10T15:08:54.789Z,18.50
2023-04-10T15:11:21.693Z,18.50
2023-04-10T15:13:48.604Z,18.50
2023-04-10T15:16:15.613Z,18.50
2023-04-10T15:18:42.892Z,18.50
2023-04-10T15:21:09.799Z,18.50
2023-04-10T15:23:36.803Z,18.50
2023-04-10T15:26:03.862Z,18.50
2023-04-10T15:28:30.798Z,18.50
2023-04-10T15:30:57.857Z,18.50
2023-04-10T15:33:24.898Z,18.50
2023-04-10T15:35:51.933Z,18.50
2023-04-10T15:38:18.921Z,18.50
2023-04-10T15:40:45.861Z,18.50
2023-04-10T15:43:12.861Z,18.50
2023-04-10T15:45:39.804Z,18.50
2023-04-10T15:48:06.846Z,18.50
2023-04-10T15:50:35.064Z,18.50
2023-04-10T15:53:01.999Z,18.50
2023-04-10T15:55:28.916Z,18.50
2023-04-10T15:57:56.067Z,18.50
2023-04-10T16:00:23.566Z,18.50
2023-04-10T16:02:51.008Z,18.50
2023-04-10T16:05:18.296Z,18.50
2023-04-10T16:07:45.400Z,18.50
2023-04-10T16:10:12.430Z,18.60
2023-04-10T16:12:39.439Z,18.40
2023-04-10T16:15:08.142Z,18.40
2023-04-10T16:17:35.448Z,18.40
2023-04-10T16:20:08.904Z,18.40
2023-04-10T16:22:36.624Z,18.40
2023-04-10T16:27:31.977Z,18.40
2023-04-10T16:29:59.000Z,18.40
2023-04-10T16:32:25.989Z,18.40
2023-04-10T16:34:52.949Z,18.50
2023-04-10T16:37:19.846Z,18.40
2023-04-10T16:39:46.784Z,18.40
2023-04-10T16:42:13.736Z,18.40
2023-04-10T16:44:40.751Z,18.30
2023-04-10T16:47:08.576Z,18.30
2023-04-10T16:49:35.532Z,18.30
2023-04-10T16:52:02.502Z,18.30
2023-04-10T16:54:29.443Z,18.30
2023-04-10T16:56:57.002Z,18.30
2023-04-10T16:59:24.000Z,18.20
2023-04-10T17:01:51.443Z,18.20
2023-04-10T17:04:19.974Z,18.20
2023-04-10T17:06:47.017Z,18.20
2023-04-10T17:09:13.990Z,18.20
2023-04-10T17:11:41.042Z,18.20
2023-04-10T17:14:08.985Z,18.10
2023-04-10T17:16:36.263Z,18.10
2023-04-10T17:19:03.272Z,18.20
2023-04-10T17:21:31.375Z,18.10
2023-04-10T17:23:58.360Z,18.10
2023-04-10T17:26:25.460Z,18.00
2023-04-10T17:28:52.735Z,18.00
2023-04-10T17:31:19.899Z,18.00
2023-04-10T17:33:46.951Z,18.00
2023-04-10T17:36:14.462Z,17.90
2023-04-10T17:38:42.062Z,17.90
2023-04-10T17:41:09.681Z,17.90
2023-04-10T17:43:36.684Z,17.90
2023-04-10T17:46:03.670Z,17.90
2023-04-10T17:48:30.865Z,17.90
2023-04-10T17:50:57.851Z,17.80
2023-04-10T17:53:24.890Z,17.80
2023-04-10T17:55:51.803Z,17.80
2023-04-10T17:58:18.715Z,17.80
2023-04-10T18:00:45.987Z,17.70
2023-04-10T18:03:12.922Z,17.70
2023-04-10T18:05:39.919Z,17.60
2023-04-10T18:08:08.435Z,17.60
2023-04-10T18:10:35.984Z,17.60
2023-04-10T18:13:03.349Z,17.50
2023-04-10T18:15:30.437Z,17.50
2023-04-10T18:17:57.402Z,17.50
2023-04-10T18:20:24.483Z,17.50
2023-04-10T18:22:51.480Z,17.40
2023-04-10T18:25:18.501Z,17.40
2023-04-10T18:27:51.748Z,17.40
2023-04-10T18:30:32.579Z,17.40
2023-04-10T18:32:59.612Z,17.40
2023-04-10T18:35:26.622Z,17.40
2023-04-10T18:37:53.599Z,17.40
2023-04-10T18:40:22.122Z,17.30
2023-04-10T18:42:49.017Z,17.30
2023-04-10T18:45:15.989Z,17.30
2023-04-10T18:47:42.905Z,17.30
2023-04-10T18:50:11.476Z,17.30
2023-04-10T18:52:38.450Z,17.30
2023-04-10T18:55:05.820Z,17.20
2023-04-10T18:57:32.847Z,17.20
2023-04-10T19:00:00.293Z,17.10
2023-04-10T19:02:27.568Z,17.20
2023-04-10T19:04:54.779Z,17.20
2023-04-10T19:07:21.738Z,17.20
2023-04-10T19:09:48.672Z,17.20
2023-04-10T19:12:15.700Z,17.20
2023-04-10T19:14:42.661Z,17.10
2023-04-10T19:17:09.668Z,17.10
2023-04-10T19:19:36.605Z,17.20
2023-04-10T19:22:03.683Z,17.20
2023-04-10T19:24:32.180Z,17.20
2023-04-10T19:26:59.838Z,17.20
2023-04-10T19:29:26.900Z,17.20
2023-04-10T19:31:53.863Z,17.30
2023-04-10T19:34:20.812Z,17.30
2023-04-10T19:36:47.789Z,17.30
2023-04-10T19:39:14.773Z,17.40
2023-04-10T19:41:42.314Z,17.40
2023-04-10T19:44:09.452Z,17.40
2023-04-10T19:46:36.419Z,17.40
2023-04-10T19:49:03.643Z,17.40
2023-04-10T19:51:32.257Z,17.40
2023-04-10T19:53:59.378Z,17.40
2023-04-10T19:56:27.653Z,17.40
2023-04-10T19:58:54.636Z,17.30
2023-04-10T20:01:24.085Z,17.30
2023-04-10T20:03:51.511Z,17.20
2023-04-10T20:06:18.630Z,17.10
2023-04-10T20:08:45.610Z,17.10
2023-04-10T20:11:12.625Z,17.00
2023-04-10T20:13:40.869Z,17.00
2023-04-10T20:16:08.325Z,17.00
2023-04-10T20:18:35.828Z,16.90
2023-04-10T20:21:02.783Z,16.80
2023-04-10T20:23:29.662Z,17.00
2023-04-10T20:25:56.577Z,16.80
2023-04-10T20:28:23.558Z,16.70
2023-04-10T20:30:50.701Z,16.60
2023-04-10T20:33:17.651Z,16.50
2023-04-10T20:35:44.560Z,16.50
2023-04-10T20:38:11.474Z,16.50
2023-04-10T20:40:38.390Z,16.40
2023-04-10T20:43:10.864Z,16.50
2023-04-10T20:45:38.291Z,16.50
2023-04-10T20:48:05.439Z,16.40
2023-04-10T20:50:32.447Z,16.40
2023-04-10T20:52:59.467Z,16.30
2023-04-10T20:55:26.402Z,16.30
2023-04-10T20:57:53.445Z,16.30
2023-04-10T21:00:20.715Z,16.30
2023-04-10T21:02:47.786Z,16.40
2023-04-10T21:05:14.801Z,16.40
2023-04-10T21:07:42.060Z,16.50
2023-04-10T21:10:09.038Z,16.50
2023-04-10T21:12:35.950Z,16.50
2023-04-10T21:15:02.945Z,16.50
2023-04-10T21:17:31.549Z,16.50
2023-04-10T21:19:59.111Z,16.50
2023-04-10T21:22:28.669Z,16.50
2023-04-10T21:24:56.294Z,16.50
2023-04-10T21:27:23.754Z,16.40
2023-04-10T21:29:50.780Z,16.50
2023-04-10T21:32:17.723Z,16.50
2023-04-10T21:34:44.654Z,16.60
2023-04-10T21:37:11.568Z,16.50
2023-04-10T21:39:41.553Z,16.60
2023-04-10T21:42:08.490Z,16.60
2023-04-10T21:44:35.525Z,16.60
2023-04-10T21:47:02.499Z,16.60
2023-04-10T21:49:29.479Z,16.60
2023-04-10T21:51:56.414Z,16.70
2023-04-10T21:54:23.319Z,16.70
2023-04-10T21:56:50.217Z,16.70
2023-04-10T21:59:17.165Z,16.60
2023-04-10T22:01:44.301Z,16.70
2023-04-10T22:04:11.395Z,16.70
2023-04-10T22:06:38.454Z,16.60
2023-04-10T22:09:05.569Z,16.60
2023-04-10T22:11:33.288Z,16.70
2023-04-10T22:14:08.985Z,16.60
2023-04-10T22:16:42.232Z,16.70
2023-04-10T22:19:09.166Z,16.80
2023-04-10T22:21:36.120Z,16.60
2023-04-10T22:24:03.093Z,16.50
2023-04-10T22:26:30.085Z,16.50
2023-04-10T22:28:59.337Z,16.50
2023-04-10T22:31:26.510Z,16.50
2023-04-10T22:33:53.572Z,16.50
2023-04-10T22:36:21.222Z,16.60
2023-04-10T22:38:48.121Z,16.50
2023-04-10T22:41:15.031Z,16.50
2023-04-10T22:43:41.905Z,16.50
2023-04-10T22:46:09.155Z,16.50
2023-04-10T22:48:36.089Z,16.50
2023-04-10T22:51:03.039Z,16.50
2023-04-10T22:53:29.995Z,16.50
2023-04-10T22:55:56.948Z,16.60
2023-04-10T22:58:23.861Z,16.40
